createdAt,value
2022-12-13T00:00:03.423Z,12.17
2022-12-13T00:02:06.446Z,9.83
2022-12-13T00:04:11.360Z,10.77
2022-12-13T00:06:14.796Z,11.90
2022-12-13T00:08:17.768Z,11.47
2022-12-13T00:10:20.634Z,10.40
2022-12-13T00:12:23.444Z,11.87
2022-12-13T00:14:26.417Z,10.83
2022-12-13T00:16:30.764Z,10.27
2022-12-13T00:18:34.679Z,10.10
2022-12-13T00:20:41.060Z,8.13
2022-12-13T00:22:43.910Z,11.37
2022-12-13T00:24:46.742Z,10.47
2022-12-13T00:26:49.661Z,12.43
2022-12-13T00:28:54.045Z,9.57
2022-12-13T00:31:04.547Z,10.57
2022-12-13T00:33:22.590Z,8.73
2022-12-13T00:35:25.597Z,8.03
2022-12-13T00:37:28.430Z,9.67
2022-12-13T00:39:31.565Z,7.70
2022-12-13T00:41:36.201Z,10.23
2022-12-13T00:43:39.022Z,8.57
2022-12-13T00:45:42.492Z,9.53
2022-12-13T00:47:46.753Z,9.80
2022-12-13T00:49:50.940Z,8.37
2022-12-13T00:51:53.758Z,11.00
2022-12-13T00:53:56.964Z,8.90
2022-12-13T00:55:59.834Z,9.33
2022-12-13T00:58:02.613Z,9.13
2022-12-13T01:00:07.114Z,9.07
2022-12-13T01:02:09.949Z,11.37
2022-12-13T01:04:13.113Z,7.13
2022-12-13T01:06:20.213Z,8.93
2022-12-13T01:08:23.230Z,8.90
2022-12-13T01:10:26.082Z,8.50
2022-12-13T01:12:28.928Z,8.50
2022-12-13T01:14:31.974Z,7.97
2022-12-13T01:16:34.894Z,7.60
2022-12-13T01:18:38.342Z,8.33
2022-12-13T01:20:41.679Z,9.90
2022-12-13T01:22:45.885Z,10.63
2022-12-13T01:24:48.784Z,8.60
2022-12-13T01:26:52.046Z,7.30
2022-12-13T01:29:00.233Z,7.50
2022-12-13T01:31:06.078Z,8.83
2022-12-13T01:33:13.869Z,10.73
2022-12-13T01:35:17.755Z,7.47
2022-12-13T01:37:20.954Z,9.17
2022-12-13T01:39:31.123Z,7.57
2022-12-13T01:41:41.738Z,7.00
2022-12-13T01:44:05.968Z,8.23
2022-12-13T01:46:09.071Z,7.37
2022-12-13T01:48:17.555Z,9.87
2022-12-13T01:50:25.605Z,8.83
2022-12-13T01:52:31.446Z,7.47
2022-12-13T01:54:46.558Z,9.17
2022-12-13T01:56:52.960Z,8.53
2022-12-13T01:59:05.435Z,9.80
2022-12-13T02:01:08.358Z,7.87
2022-12-13T02:03:20.953Z,7.00
2022-12-13T02:05:29.676Z,6.20
2022-12-13T02:07:34.925Z,8.00
2022-12-13T02:09:39.567Z,11.77
2022-12-13T02:11:44.806Z,8.50
2022-12-13T02:13:47.609Z,7.90
2022-12-13T02:15:59.375Z,9.30
2022-12-13T02:18:15.706Z,8.37
2022-12-13T02:21:02.001Z,7.87
2022-12-13T02:23:25.309Z,6.97
2022-12-13T02:25:50.987Z,8.53
2022-12-13T02:28:31.186Z,6.70
2022-12-13T02:30:40.597Z,9.03
2022-12-13T02:32:54.770Z,6.87
2022-12-13T02:35:03.386Z,8.10
2022-12-13T02:37:17.525Z,9.57
2022-12-13T02:39:30.593Z,7.83
2022-12-13T02:41:40.042Z,7.33
2022-12-13T02:43:49.074Z,10.90
2022-12-13T02:45:56.092Z,9.20
2022-12-13T02:48:02.780Z,8.77
2022-12-13T02:50:09.102Z,8.70
2022-12-13T02:52:14.572Z,9.17
2022-12-13T02:54:25.889Z,8.07
2022-12-13T02:56:28.789Z,9.20
2022-12-13T02:58:38.077Z,7.67
2022-12-13T03:00:52.887Z,9.00
2022-12-13T03:03:10.771Z,7.83
2022-12-13T03:05:39.262Z,7.10
2022-12-13T03:07:51.548Z,7.80
2022-12-13T03:09:59.983Z,9.37
2022-12-13T03:12:37.281Z,11.40
2022-12-13T03:14:49.029Z,13.53
2022-12-13T03:16:53.785Z,13.27
2022-12-13T03:19:00.648Z,13.53
2022-12-13T03:21:10.375Z,12.03
2022-12-13T03:23:13.367Z,15.80
2022-12-13T03:25:31.630Z,16.50
2022-12-13T03:27:35.138Z,18.00
2022-12-13T03:29:37.957Z,19.00
2022-12-13T03:31:40.916Z,17.13
2022-12-13T03:33:43.748Z,16.90
2022-12-13T03:35:47.891Z,16.97
2022-12-13T03:37:51.141Z,18.67
2022-12-13T03:39:54.141Z,19.87
2022-12-13T03:41:57.006Z,16.80
2022-12-13T03:44:00.265Z,20.30
2022-12-13T03:46:03.151Z,18.40
2022-12-13T03:48:06.264Z,18.17
2022-12-13T03:50:27.089Z,19.57
2022-12-13T03:52:31.675Z,16.23
2022-12-13T03:54:34.476Z,16.67
2022-12-13T03:56:37.342Z,16.27
2022-12-13T03:58:42.117Z,15.10
2022-12-13T04:00:45.414Z,17.80
2022-12-13T04:02:48.433Z,16.20
2022-12-13T04:04:51.327Z,15.83
2022-12-13T04:06:54.139Z,19.47
2022-12-13T04:08:58.384Z,17.23
2022-12-13T04:11:21.242Z,17.87
2022-12-13T04:13:34.888Z,16.53
2022-12-13T04:15:37.791Z,14.30
2022-12-13T04:17:40.621Z,14.17
2022-12-13T04:19:43.446Z,17.73
2022-12-13T04:21:46.275Z,15.70
2022-12-13T04:23:49.086Z,17.27
2022-12-13T04:25:53.330Z,17.93
2022-12-13T04:27:56.135Z,16.27
2022-12-13T04:29:59.012Z,16.50
2022-12-13T04:32:01.844Z,12.57
2022-12-13T04:34:04.698Z,14.63
2022-12-13T04:36:08.565Z,14.17
2022-12-13T04:38:11.388Z,14.40
2022-12-13T04:40:14.317Z,13.37
2022-12-13T04:42:26.167Z,12.20
2022-12-13T04:44:32.560Z,12.03
2022-12-13T04:46:36.874Z,11.97
2022-12-13T04:48:39.670Z,14.60
2022-12-13T04:50:42.487Z,12.07
2022-12-13T04:52:45.781Z,9.23
2022-12-13T04:54:48.603Z,11.10
2022-12-13T04:56:58.870Z,9.50
2022-12-13T04:59:03.257Z,9.90
2022-12-13T05:01:08.102Z,10.30
2022-12-13T05:03:10.978Z,12.53
2022-12-13T05:05:15.038Z,11.77
2022-12-13T05:07:18.037Z,12.07
2022-12-13T05:09:20.900Z,11.43
2022-12-13T05:11:23.755Z,9.23
2022-12-13T05:13:26.645Z,11.80
2022-12-13T05:15:31.130Z,12.47
2022-12-13T05:17:34.010Z,12.33
2022-12-13T05:19:36.836Z,12.90
2022-12-13T05:21:39.686Z,14.63
2022-12-13T05:23:42.463Z,15.07
2022-12-13T05:25:45.300Z,14.20
2022-12-13T05:27:48.166Z,14.20
2022-12-13T05:29:54.825Z,12.33
2022-12-13T05:32:08.279Z,13.10
2022-12-13T05:34:11.242Z,13.90
2022-12-13T05:36:14.110Z,14.47
2022-12-13T05:38:17.148Z,14.77
2022-12-13T05:40:20.219Z,16.97
2022-12-13T05:42:23.034Z,18.27
2022-12-13T05:44:25.837Z,16.60
2022-12-13T05:46:28.655Z,16.50
2022-12-13T05:48:33.071Z,17.20
2022-12-13T05:50:35.925Z,18.93
2022-12-13T05:52:38.861Z,16.47
2022-12-13T05:54:42.887Z,21.97
2022-12-13T05:56:45.945Z,17.90
2022-12-13T05:58:48.833Z,20.93
2022-12-13T06:00:56.591Z,19.40
2022-12-13T06:03:00.975Z,16.30
2022-12-13T06:05:06.500Z,16.17
2022-12-13T06:07:09.329Z,16.53
2022-12-13T06:09:12.413Z,19.47
2022-12-13T06:11:31.158Z,16.77
2022-12-13T06:13:34.440Z,18.43
2022-12-13T06:15:45.054Z,13.93
2022-12-13T06:17:47.883Z,15.00
2022-12-13T06:19:50.974Z,16.90
2022-12-13T06:21:56.526Z,18.03
2022-12-13T06:23:59.509Z,14.80
2022-12-13T06:26:04.001Z,13.37
2022-12-13T06:28:06.899Z,15.23
2022-12-13T06:30:10.870Z,14.03
2022-12-13T06:32:13.879Z,13.90
2022-12-13T06:34:16.647Z,11.77
2022-12-13T06:36:19.626Z,13.80
2022-12-13T06:38:31.356Z,13.30
2022-12-13T06:40:35.017Z,10.77
2022-12-13T06:42:37.879Z,12.70
2022-12-13T06:44:42.743Z,10.73
2022-12-13T06:46:45.843Z,12.30
2022-12-13T06:48:49.014Z,14.57
2022-12-13T06:50:51.999Z,16.23
2022-12-13T06:52:54.812Z,14.00
2022-12-13T06:55:00.074Z,14.17
2022-12-13T06:57:02.971Z,15.13
2022-12-13T06:59:05.788Z,14.37
2022-12-13T07:01:14.537Z,12.77
2022-12-13T07:03:18.343Z,11.00
2022-12-13T07:05:21.349Z,13.20
2022-12-13T07:07:25.686Z,14.30
2022-12-13T07:09:28.483Z,14.10
2022-12-13T07:11:34.503Z,21.00
2022-12-13T07:13:37.311Z,15.97
2022-12-13T07:15:40.548Z,16.63
2022-12-13T07:17:43.743Z,15.57
2022-12-13T07:19:47.081Z,12.37
2022-12-13T07:21:50.311Z,13.67
2022-12-13T07:23:55.064Z,18.57
2022-12-13T07:25:58.461Z,14.30
2022-12-13T07:28:04.070Z,14.53
2022-12-13T07:30:07.917Z,16.87
2022-12-13T07:32:12.663Z,15.07
2022-12-13T07:34:15.919Z,13.67
2022-12-13T07:36:20.784Z,14.83
2022-12-13T07:38:23.596Z,20.20
2022-12-13T07:40:26.891Z,17.67
2022-12-13T07:42:29.739Z,14.70
2022-12-13T07:44:33.910Z,20.50
2022-12-13T07:46:36.857Z,14.17
2022-12-13T07:48:39.814Z,13.80
2022-12-13T07:50:43.153Z,17.60
2022-12-13T07:52:45.964Z,15.00
2022-12-13T07:54:48.778Z,17.37
2022-12-13T07:56:51.692Z,19.00
2022-12-13T07:58:54.515Z,15.03
2022-12-13T08:01:02.902Z,18.73
2022-12-13T08:03:06.749Z,20.47
2022-12-13T08:05:26.404Z,23.50
2022-12-13T08:07:30.058Z,21.30
2022-12-13T08:09:32.904Z,25.90
2022-12-13T08:11:35.891Z,17.97
2022-12-13T08:13:40.643Z,17.60
2022-12-13T08:15:43.499Z,16.57
2022-12-13T08:17:47.686Z,19.63
2022-12-13T08:19:50.555Z,22.00
2022-12-13T08:21:55.802Z,23.03
2022-12-13T08:24:00.299Z,22.97
2022-12-13T08:26:04.603Z,23.83
2022-12-13T08:28:07.421Z,24.53
2022-12-13T08:30:11.403Z,24.37
2022-12-13T08:32:14.531Z,25.63
2022-12-13T08:34:18.681Z,22.90
2022-12-13T08:36:24.119Z,24.33
2022-12-13T08:38:26.974Z,22.83
2022-12-13T08:40:29.949Z,22.00
2022-12-13T08:42:32.767Z,21.73
2022-12-13T08:44:35.590Z,25.07
2022-12-13T08:46:38.501Z,22.50
2022-12-13T08:48:43.960Z,26.10
2022-12-13T08:50:49.592Z,22.90
2022-12-13T08:52:53.444Z,24.73
2022-12-13T08:54:56.288Z,24.07
2022-12-13T08:56:59.435Z,19.77
2022-12-13T08:59:02.314Z,20.27
2022-12-13T09:01:07.442Z,22.50
2022-12-13T09:03:10.533Z,23.17
2022-12-13T09:05:33.457Z,17.97
2022-12-13T09:07:39.531Z,22.17
2022-12-13T09:09:42.380Z,23.70
2022-12-13T09:11:45.346Z,23.50
2022-12-13T09:13:48.438Z,22.53
2022-12-13T09:15:51.378Z,24.13
2022-12-13T09:17:54.427Z,25.13
2022-12-13T09:19:57.915Z,27.53
2022-12-13T09:22:02.128Z,28.80
2022-12-13T09:24:07.470Z,27.43
2022-12-13T09:26:27.240Z,25.60
2022-12-13T09:28:31.153Z,29.50
2022-12-13T09:30:34.005Z,25.97
2022-12-13T09:32:36.809Z,34.60
2022-12-13T09:34:39.679Z,27.53
2022-12-13T09:36:42.611Z,26.37
2022-12-13T09:38:46.090Z,23.87
2022-12-13T09:40:58.878Z,26.13
2022-12-13T09:43:13.410Z,23.40
2022-12-13T09:45:32.100Z,26.20
2022-12-13T09:47:37.900Z,24.57
2022-12-13T09:49:52.151Z,34.47
2022-12-13T09:52:11.181Z,25.93
2022-12-13T09:54:20.071Z,34.30
2022-12-13T09:56:25.146Z,31.97
2022-12-13T09:58:31.784Z,24.77
2022-12-13T10:00:37.062Z,26.03
2022-12-13T10:02:45.496Z,33.23
2022-12-13T10:04:48.609Z,24.87
2022-12-13T10:06:54.303Z,24.73
2022-12-13T10:09:00.440Z,24.37
2022-12-13T10:11:03.597Z,26.97
2022-12-13T10:13:14.633Z,30.70
2022-12-13T10:15:22.206Z,31.03
2022-12-13T10:17:29.955Z,32.50
2022-12-13T10:19:44.609Z,33.53
2022-12-13T10:21:48.646Z,34.47
2022-12-13T10:26:23.731Z,32.83
2022-12-13T10:28:31.894Z,29.83
2022-12-13T10:30:42.817Z,31.27
2022-12-13T10:32:55.405Z,30.13
2022-12-13T10:34:58.274Z,32.40
2022-12-13T10:37:02.287Z,30.40
2022-12-13T10:39:05.708Z,28.27
2022-12-13T10:41:32.701Z,29.07
2022-12-13T10:43:38.114Z,28.73
2022-12-13T10:45:41.828Z,31.20
2022-12-13T10:47:45.844Z,29.40
2022-12-13T10:49:51.937Z,27.50
2022-12-13T10:52:03.139Z,32.20
2022-12-13T10:54:06.738Z,29.93
2022-12-13T10:56:09.606Z,33.97
2022-12-13T10:58:20.889Z,30.13
2022-12-13T11:00:38.852Z,33.37
2022-12-13T11:02:41.986Z,36.33
2022-12-13T11:04:45.168Z,30.80
2022-12-13T11:06:49.376Z,36.03
2022-12-13T11:08:53.221Z,33.00
2022-12-13T11:11:01.371Z,33.90
2022-12-13T11:13:06.313Z,30.10
2022-12-13T11:15:17.591Z,35.40
2022-12-13T11:17:29.196Z,30.87
2022-12-13T11:19:38.209Z,33.97
2022-12-13T11:21:41.156Z,36.07
2022-12-13T11:23:46.223Z,33.17
2022-12-13T11:25:49.787Z,34.07
2022-12-13T11:28:26.554Z,33.80
2022-12-13T11:30:38.513Z,32.17
2022-12-13T11:33:04.076Z,34.37
2022-12-13T11:35:14.646Z,31.77
2022-12-13T11:37:27.294Z,32.17
2022-12-13T11:39:33.511Z,31.37
2022-12-13T11:41:41.125Z,33.53
2022-12-13T11:43:51.140Z,32.77
2022-12-13T11:45:57.322Z,29.17
2022-12-13T11:48:06.444Z,31.37
2022-12-13T11:50:22.011Z,32.47
2022-12-13T11:52:40.880Z,32.80
2022-12-13T11:54:50.738Z,29.47
2022-12-13T11:57:00.676Z,31.53
2022-12-13T11:59:20.578Z,28.43
2022-12-13T12:01:31.585Z,28.10
2022-12-13T12:03:48.199Z,33.53
2022-12-13T12:05:55.774Z,38.50
2022-12-13T12:08:31.775Z,36.23
2022-12-13T12:10:35.779Z,30.27
2022-12-13T12:12:42.245Z,28.23
2022-12-13T12:14:53.172Z,32.07
2022-12-13T12:16:59.390Z,29.00
2022-12-13T12:19:03.706Z,25.60
2022-12-13T12:21:21.258Z,21.80
2022-12-13T12:23:40.000Z,25.53
2022-12-13T12:25:52.861Z,21.63
2022-12-13T12:28:02.928Z,20.00
2022-12-13T12:30:13.900Z,21.43
2022-12-13T12:32:34.489Z,20.13
2022-12-13T12:34:47.059Z,19.83
2022-12-13T12:37:03.328Z,18.40
2022-12-13T12:39:28.531Z,20.20
2022-12-13T12:41:41.989Z,20.57
2022-12-13T12:43:55.003Z,17.70
2022-12-13T12:46:18.202Z,15.47
2022-12-13T12:51:07.910Z,23.47
2022-12-13T12:53:30.099Z,18.87
2022-12-13T12:55:49.102Z,20.87
2022-12-13T12:58:03.141Z,17.83
2022-12-13T13:00:12.027Z,16.73
2022-12-13T13:02:20.702Z,16.40
2022-12-13T13:04:30.122Z,21.63
2022-12-13T13:06:39.753Z,15.50
2022-12-13T13:08:50.134Z,20.47
2022-12-13T13:11:02.070Z,15.73
2022-12-13T13:13:12.187Z,17.43
2022-12-13T13:16:00.367Z,16.77
2022-12-13T13:18:03.550Z,14.73
2022-12-13T13:20:19.008Z,16.47
2022-12-13T13:22:32.542Z,21.53
2022-12-13T13:24:35.734Z,21.47
2022-12-13T13:26:40.521Z,24.30
2022-12-13T13:28:43.497Z,29.40
2022-12-13T13:31:03.723Z,28.13
2022-12-13T13:33:42.550Z,29.03
2022-12-13T13:35:50.218Z,25.30
2022-12-13T13:37:54.427Z,27.03
2022-12-13T13:40:00.533Z,30.60
2022-12-13T13:42:18.369Z,26.40
2022-12-13T13:45:03.163Z,31.53
2022-12-13T13:47:13.416Z,26.50
2022-12-13T13:49:16.288Z,20.70
2022-12-13T13:54:56.856Z,26.13
2022-12-13T13:57:33.215Z,33.20
2022-12-13T14:00:16.454Z,27.80
2022-12-13T14:02:57.001Z,33.83
2022-12-13T14:05:29.793Z,29.53
2022-12-13T14:08:03.816Z,30.77
2022-12-13T14:10:23.105Z,33.03
2022-12-13T14:13:03.372Z,31.80
2022-12-13T14:15:37.427Z,33.50
2022-12-13T14:18:06.309Z,36.03
2022-12-13T14:20:35.788Z,31.40
2022-12-13T14:22:44.537Z,27.93
2022-12-13T14:24:54.876Z,33.53
2022-12-13T14:27:12.247Z,38.43
2022-12-13T14:29:17.187Z,47.83
2022-12-13T14:31:24.033Z,45.13
2022-12-13T14:33:28.341Z,37.90
2022-12-13T14:35:33.573Z,31.93
2022-12-13T14:37:37.792Z,34.63
2022-12-13T14:39:46.073Z,36.97
2022-12-13T14:41:50.434Z,32.03
2022-12-13T14:46:33.882Z,32.43
2022-12-13T14:48:38.382Z,35.93
2022-12-13T14:50:44.618Z,28.90
2022-12-13T14:52:49.765Z,30.53
2022-12-13T14:54:57.845Z,42.30
2022-12-13T14:57:04.177Z,32.10
2022-12-13T14:59:14.035Z,30.93
2022-12-13T15:01:29.264Z,29.63
2022-12-13T15:03:35.108Z,54.80
2022-12-13T15:05:47.193Z,38.57
2022-12-13T15:07:53.605Z,49.17
2022-12-13T15:09:58.709Z,35.83
2022-12-13T15:12:24.030Z,34.53
2022-12-13T15:14:26.664Z,33.67
2022-12-13T15:16:30.602Z,42.33
2022-12-13T15:18:36.180Z,33.33
2022-12-13T15:20:41.746Z,32.73
2022-12-13T15:22:44.731Z,28.13
2022-12-13T15:24:48.660Z,32.47
2022-12-13T15:26:51.887Z,31.13
2022-12-13T15:28:56.445Z,31.00
2022-12-13T15:31:00.698Z,35.83
2022-12-13T15:33:04.767Z,31.60
2022-12-13T15:35:17.954Z,32.27
2022-12-13T15:37:33.238Z,30.03
2022-12-13T15:39:40.813Z,31.67
2022-12-13T15:41:51.657Z,35.57
2022-12-13T15:43:58.758Z,32.23
2022-12-13T15:46:01.869Z,32.10
2022-12-13T15:48:05.871Z,33.07
2022-12-13T15:50:09.444Z,30.30
2022-12-13T15:52:32.133Z,28.73
2022-12-13T15:54:35.342Z,35.83
2022-12-13T15:56:41.419Z,35.40
2022-12-13T15:58:53.257Z,28.60
2022-12-13T16:00:56.830Z,28.17
2022-12-13T16:03:09.303Z,29.77
2022-12-13T16:05:24.675Z,36.17
2022-12-13T16:07:35.705Z,34.90
2022-12-13T16:09:39.684Z,34.93
2022-12-13T16:11:52.148Z,36.67
2022-12-13T16:13:58.583Z,36.93
2022-12-13T16:16:09.385Z,39.23
2022-12-13T16:18:17.391Z,36.17
2022-12-13T16:20:22.098Z,34.90
2022-12-13T16:22:25.001Z,35.23
2022-12-13T16:24:29.158Z,35.73
2022-12-13T16:26:32.132Z,37.03
2022-12-13T16:28:34.947Z,31.67
2022-12-13T16:31:03.185Z,35.87
2022-12-13T16:33:27.337Z,35.57
2022-12-13T16:35:29.045Z,32.40
2022-12-13T16:37:32.099Z,28.23
2022-12-13T16:39:36.212Z,29.67
2022-12-13T16:41:41.647Z,27.57
2022-12-13T16:43:53.913Z,31.70
2022-12-13T16:45:56.918Z,28.37
2022-12-13T16:48:01.666Z,28.90
2022-12-13T16:50:10.821Z,29.67
2022-12-13T16:52:13.652Z,29.20
2022-12-13T16:54:16.482Z,31.17
2022-12-13T16:56:21.747Z,29.23
2022-12-13T16:58:25.920Z,31.20
2022-12-13T17:00:29.529Z,32.73
2022-12-13T17:02:32.444Z,35.83
2022-12-13T17:04:35.372Z,39.13
2022-12-13T17:06:38.729Z,34.43
2022-12-13T17:08:41.577Z,37.17
2022-12-13T17:10:45.882Z,31.93
2022-12-13T17:12:50.146Z,31.63
2022-12-13T17:14:52.965Z,28.83
2022-12-13T17:16:55.981Z,32.13
2022-12-13T17:18:59.335Z,33.93
2022-12-13T17:21:07.895Z,30.53
2022-12-13T17:23:16.224Z,33.93
2022-12-13T17:25:20.845Z,32.50
2022-12-13T17:27:23.635Z,30.67
2022-12-13T17:29:27.943Z,27.50
2022-12-13T17:31:35.179Z,32.40
2022-12-13T17:33:39.232Z,31.53
2022-12-13T17:35:42.026Z,30.30
2022-12-13T17:37:44.877Z,28.63
2022-12-13T17:39:47.871Z,33.17
2022-12-13T17:41:55.600Z,31.77
2022-12-13T17:44:00.808Z,30.57
2022-12-13T17:46:06.778Z,31.67
2022-12-13T17:48:09.619Z,33.47
2022-12-13T17:50:12.569Z,34.43
2022-12-13T17:52:15.409Z,28.77
2022-12-13T17:54:18.324Z,35.90
2022-12-13T17:56:22.038Z,27.83
2022-12-13T17:58:25.267Z,26.60
2022-12-13T18:00:28.550Z,31.50
2022-12-13T18:02:32.725Z,31.60
2022-12-13T18:04:35.603Z,32.10
2022-12-13T18:06:38.422Z,36.47
2022-12-13T18:08:44.302Z,37.83
2022-12-13T18:11:15.686Z,34.27
2022-12-13T18:13:16.986Z,34.30
2022-12-13T18:15:19.801Z,27.23
2022-12-13T18:17:24.403Z,33.27
2022-12-13T18:19:39.264Z,36.03
2022-12-13T18:21:43.215Z,30.50
2022-12-13T18:23:55.207Z,33.13
2022-12-13T18:26:00.761Z,36.73
2022-12-13T18:28:03.644Z,29.47
2022-12-13T18:30:07.253Z,31.70
2022-12-13T18:32:10.363Z,33.90
2022-12-13T18:34:13.238Z,33.50
2022-12-13T18:36:17.814Z,31.63
2022-12-13T18:38:21.022Z,35.87
2022-12-13T18:40:23.829Z,33.90
2022-12-13T18:42:26.701Z,34.03
2022-12-13T18:44:29.511Z,39.97
2022-12-13T18:46:34.703Z,33.40
2022-12-13T18:48:37.682Z,33.60
2022-12-13T18:50:45.575Z,38.00
2022-12-13T18:52:55.370Z,37.30
2022-12-13T18:54:58.306Z,35.13
2022-12-13T18:57:01.106Z,35.53
2022-12-13T18:59:03.908Z,32.10
2022-12-13T19:01:09.147Z,26.77
2022-12-13T19:03:12.093Z,33.27
2022-12-13T19:05:14.986Z,28.87
2022-12-13T19:07:17.963Z,29.70
2022-12-13T19:09:22.159Z,26.33
2022-12-13T19:11:25.885Z,32.03
2022-12-13T19:13:29.971Z,28.97
2022-12-13T19:15:33.018Z,31.20
2022-12-13T19:17:35.807Z,31.07
2022-12-13T19:19:38.663Z,27.80
2022-12-13T19:21:41.494Z,29.00
2022-12-13T19:23:48.313Z,26.63
2022-12-13T19:25:54.267Z,29.07
2022-12-13T19:27:57.618Z,26.93
2022-12-13T19:30:00.443Z,28.93
2022-12-13T19:32:03.871Z,30.33
2022-12-13T19:34:06.671Z,32.77
2022-12-13T19:36:09.949Z,28.10
2022-12-13T19:38:12.875Z,39.23
2022-12-13T19:40:15.814Z,31.60
2022-12-13T19:42:19.968Z,34.00
2022-12-13T19:44:22.783Z,29.40
2022-12-13T19:46:25.989Z,34.40
2022-12-13T19:48:28.845Z,36.13
2022-12-13T19:50:31.733Z,34.97
2022-12-13T19:52:34.758Z,34.97
2022-12-13T19:54:37.587Z,34.43
2022-12-13T19:56:40.377Z,38.87
2022-12-13T19:58:45.119Z,37.83
2022-12-13T20:00:48.019Z,45.37
2022-12-13T20:02:51.118Z,41.93
2022-12-13T20:04:54.028Z,37.00
2022-12-13T20:06:57.130Z,40.53
2022-12-13T20:08:59.949Z,40.10
2022-12-13T20:11:04.668Z,41.83
2022-12-13T20:13:07.507Z,40.40
2022-12-13T20:15:11.962Z,39.27
2022-12-13T20:17:14.759Z,39.00
2022-12-13T20:19:18.034Z,44.33
2022-12-13T20:21:20.934Z,42.07
2022-12-13T20:23:24.104Z,46.10
2022-12-13T20:25:27.170Z,46.90
2022-12-13T20:27:29.976Z,50.27
2022-12-13T20:29:32.956Z,50.17
2022-12-13T20:31:40.014Z,48.70
2022-12-13T20:33:43.245Z,44.87
2022-12-13T20:36:22.158Z,44.53
2022-12-13T20:38:09.507Z,48.20
2022-12-13T20:40:13.263Z,46.33
2022-12-13T20:42:16.236Z,49.00
2022-12-13T20:44:20.192Z,48.47
2022-12-13T20:46:23.863Z,46.27
2022-12-13T20:48:28.105Z,51.17
2022-12-13T20:50:30.988Z,50.07
2022-12-13T20:52:33.893Z,55.33
2022-12-13T20:54:37.129Z,51.93
2022-12-13T20:56:40.457Z,47.30
2022-12-13T20:58:43.959Z,53.73
2022-12-13T21:00:46.901Z,48.60
2022-12-13T21:02:49.788Z,55.53
2022-12-13T21:04:53.930Z,50.03
2022-12-13T21:06:56.869Z,51.23
2022-12-13T21:09:02.642Z,56.00
2022-12-13T21:11:20.390Z,48.97
2022-12-13T21:13:23.382Z,47.83
2022-12-13T21:15:26.591Z,47.80
2022-12-13T21:17:29.596Z,41.80
2022-12-13T21:19:39.767Z,43.60
2022-12-13T21:21:44.681Z,42.07
2022-12-13T21:23:48.409Z,38.53
2022-12-13T21:25:52.976Z,37.53
2022-12-13T21:27:55.794Z,38.00
2022-12-13T21:29:58.616Z,43.10
2022-12-13T21:32:01.632Z,40.97
2022-12-13T21:34:06.444Z,42.47
2022-12-13T21:36:10.660Z,38.53
2022-12-13T21:38:14.882Z,35.87
2022-12-13T21:40:18.234Z,37.87
2022-12-13T21:42:21.154Z,39.37
2022-12-13T21:44:24.286Z,37.53
2022-12-13T21:46:47.939Z,40.90
2022-12-13T21:48:53.416Z,35.63
2022-12-13T21:50:56.342Z,40.13
2022-12-13T21:52:59.171Z,41.70
2022-12-13T21:55:30.481Z,40.07
2022-12-13T21:58:00.824Z,42.07
2022-12-13T22:00:08.814Z,40.87
2022-12-13T22:02:15.880Z,36.53
2022-12-13T22:04:20.357Z,35.97
2022-12-13T22:06:23.203Z,41.13
2022-12-13T22:08:26.298Z,37.73
2022-12-13T22:10:30.799Z,41.30
2022-12-13T22:12:35.305Z,37.17
2022-12-13T22:14:38.532Z,42.90
2022-12-13T22:16:41.521Z,46.73
2022-12-13T22:18:44.385Z,43.73
2022-12-13T22:20:47.204Z,46.13
2022-12-13T22:22:50.050Z,39.40
2022-12-13T22:24:54.002Z,38.97
2022-12-13T22:26:58.386Z,40.93
2022-12-13T22:29:01.271Z,40.17
2022-12-13T22:31:04.115Z,36.20
2022-12-13T22:33:06.937Z,41.77
2022-12-13T22:35:11.783Z,41.03
2022-12-13T22:37:14.700Z,37.67
2022-12-13T22:39:19.183Z,33.40
2022-12-13T22:41:22.858Z,33.87
2022-12-13T22:43:27.089Z,39.00
2022-12-13T22:45:29.978Z,38.80
2022-12-13T22:47:32.784Z,39.83
2022-12-13T22:49:35.583Z,34.33
2022-12-13T22:51:39.158Z,37.63
2022-12-13T22:53:43.301Z,35.87
2022-12-13T22:55:46.105Z,34.40
2022-12-13T22:57:49.818Z,34.50
2022-12-13T22:59:54.056Z,38.67
2022-12-13T23:02:02.030Z,35.47
2022-12-13T23:04:07.052Z,36.57
2022-12-13T23:06:12.124Z,37.57
2022-12-13T23:08:14.953Z,36.37
2022-12-13T23:10:35.581Z,32.33
2022-12-13T23:12:56.012Z,36.67
2022-12-13T23:15:00.186Z,33.63
2022-12-13T23:17:03.565Z,35.37
2022-12-13T23:19:39.711Z,36.63
2022-12-13T23:21:30.843Z,36.97
2022-12-13T23:23:34.029Z,39.97
2022-12-13T23:25:36.853Z,39.57
2022-12-13T23:27:39.713Z,39.63
2022-12-13T23:29:42.607Z,37.03
2022-12-13T23:31:48.656Z,39.17
2022-12-13T23:33:52.381Z,45.87
2022-12-13T23:35:59.181Z,40.93
2022-12-13T23:38:02.070Z,37.33
2022-12-13T23:40:05.665Z,35.53
2022-12-13T23:42:08.599Z,38.03
2022-12-13T23:44:11.603Z,35.43
2022-12-13T23:46:17.685Z,32.60
2022-12-13T23:48:26.705Z,30.63
2022-12-13T23:50:30.509Z,33.00
2022-12-13T23:52:33.696Z,34.60
2022-12-13T23:54:36.544Z,33.80
2022-12-13T23:56:39.367Z,33.70
2022-12-13T23:58:44.043Z,29.40
